createdAt,value
2022-12-16T00:01:27.448Z,99577.91
2022-12-16T00:03:56.247Z,99577.91
2022-12-16T00:06:24.876Z,99570.91
2022-12-16T00:08:51.824Z,99565.53
2022-12-16T00:11:19.875Z,99557.47
2022-12-16T00:13:47.405Z,99561.81
2022-12-16T00:16:16.495Z,99548.53
2022-12-16T00:18:43.583Z,99545.88
2022-12-16T00:21:10.607Z,99549.38
2022-12-16T00:23:39.485Z,99554.59
2022-12-16T00:26:06.268Z,99557.25
2022-12-16T00:28:32.933Z,99547.50
2022-12-16T00:30:59.742Z,99553.63
2022-12-16T00:33:27.666Z,99550.88
2022-12-16T00:35:55.161Z,99553.44
2022-12-16T00:38:23.729Z,99548.31
2022-12-16T00:40:50.444Z,99543.78
2022-12-16T00:43:20.294Z,99545.56
2022-12-16T00:45:48.176Z,99547.19
2022-12-16T00:48:15.310Z,99550.78
2022-12-16T00:50:46.085Z,99541.97
2022-12-16T00:53:12.594Z,99542.72
2022-12-16T00:55:39.101Z,99525.94
2022-12-16T00:58:05.997Z,99523.94
2022-12-16T01:00:32.624Z,99524.78
2022-12-16T01:02:59.346Z,99526.47
2022-12-16T01:05:27.036Z,99512.34
2022-12-16T01:07:54.979Z,99504.19
2022-12-16T01:10:22.833Z,99503.22
2022-12-16T01:12:49.737Z,99501.53
2022-12-16T01:15:18.359Z,99497.91
2022-12-16T01:17:45.109Z,99491.75
2022-12-16T01:20:13.238Z,99482.19
2022-12-16T01:22:39.924Z,99474.44
2022-12-16T01:25:06.957Z,99475.19
2022-12-16T01:27:33.761Z,99462.03
2022-12-16T01:30:00.276Z,99460.31
2022-12-16T01:32:26.844Z,99448.78
2022-12-16T01:34:55.401Z,99449.94
2022-12-16T01:37:23.024Z,99443.66
2022-12-16T01:39:50.498Z,99440.13
2022-12-16T01:42:20.315Z,99426.88
2022-12-16T01:44:49.339Z,99424.22
2022-12-16T01:47:25.677Z,99417.97
2022-12-16T01:49:54.953Z,99417.75
2022-12-16T01:52:28.085Z,99395.44
2022-12-16T01:55:02.286Z,99387.50
2022-12-16T01:57:41.097Z,99378.56
2022-12-16T02:00:09.104Z,99368.81
2022-12-16T02:02:36.145Z,99367.13
2022-12-16T02:05:21.178Z,99359.16
2022-12-16T02:08:02.761Z,99349.59
2022-12-16T02:10:34.305Z,99341.63
2022-12-16T02:13:14.425Z,99315.81
2022-12-16T02:15:59.608Z,99306.16
2022-12-16T02:18:33.399Z,99293.50
2022-12-16T02:21:24.557Z,99266.88
2022-12-16T02:23:54.126Z,99263.34
2022-12-16T02:26:53.824Z,99256.16
2022-12-16T02:29:45.161Z,99247.94
2022-12-16T02:32:32.063Z,99245.41
2022-12-16T02:35:15.034Z,99256.88
2022-12-16T02:37:48.877Z,99242.63
2022-12-16T02:40:24.822Z,99251.56
2022-12-16T02:42:58.067Z,99265.66
2022-12-16T02:45:31.029Z,99275.22
2022-12-16T02:47:57.807Z,99271.50
2022-12-16T02:50:36.274Z,99276.94
2022-12-16T02:53:07.069Z,99281.50
2022-12-16T02:55:52.646Z,99290.31
2022-12-16T02:58:26.298Z,99286.69
2022-12-16T03:01:08.148Z,99278.75
2022-12-16T03:03:47.185Z,99274.28
2022-12-16T03:06:17.141Z,99267.16
2022-12-16T03:08:49.585Z,99261.63
2022-12-16T03:11:16.090Z,99247.41
2022-12-16T03:13:47.992Z,99239.44
2022-12-16T03:16:18.813Z,99232.28
2022-12-16T03:18:50.420Z,99256.09
2022-12-16T03:21:19.023Z,99182.59
2022-12-16T03:23:48.418Z,99165.34
2022-12-16T03:27:16.624Z,99234.28
2022-12-16T03:30:12.221Z,99218.34
2022-12-16T03:32:43.841Z,99201.56
2022-12-16T03:35:14.542Z,99213.78
2022-12-16T03:37:44.152Z,99237.66
2022-12-16T03:40:12.842Z,99239.38
2022-12-16T03:42:40.332Z,99236.59
2022-12-16T03:45:11.416Z,99227.69
2022-12-16T03:47:38.052Z,99226.84
2022-12-16T03:50:05.041Z,99211.75
2022-12-16T03:52:31.596Z,99208.13
2022-12-16T03:54:58.304Z,99214.19
2022-12-16T03:57:24.813Z,99213.22
2022-12-16T03:59:51.302Z,99199.81
2022-12-16T04:02:17.982Z,99189.09
2022-12-16T04:04:44.737Z,99188.13
2022-12-16T04:07:20.249Z,99182.81
2022-12-16T04:09:48.227Z,99175.47
2022-12-16T04:12:33.222Z,99170.75
2022-12-16T04:15:18.658Z,99166.41
2022-12-16T04:18:04.222Z,99171.50
2022-12-16T04:20:59.080Z,99173.19
2022-12-16T04:23:46.440Z,99170.41
2022-12-16T04:26:13.006Z,99165.09
2022-12-16T04:28:39.580Z,99158.94
2022-12-16T04:31:06.716Z,99156.19
2022-12-16T04:33:51.914Z,99147.97
2022-12-16T04:36:37.848Z,99153.28
2022-12-16T04:39:23.733Z,99148.56
2022-12-16T04:42:13.024Z,99147.84
2022-12-16T04:44:58.890Z,99142.44
2022-12-16T04:47:44.856Z,99139.53
2022-12-16T04:50:30.196Z,99149.06
2022-12-16T04:53:15.117Z,99146.19
2022-12-16T04:56:04.147Z,99165.78
2022-12-16T04:58:49.780Z,99157.91
2022-12-16T05:01:34.805Z,99154.16
2022-12-16T05:04:19.923Z,99134.59
2022-12-16T05:07:05.090Z,99152.34
2022-12-16T05:09:49.889Z,99140.75
2022-12-16T05:12:34.792Z,99132.66
2022-12-16T05:15:19.686Z,99137.59
2022-12-16T05:18:04.543Z,99136.53
2022-12-16T05:20:49.469Z,99140.06
2022-12-16T05:23:34.719Z,99121.22
2022-12-16T05:26:20.287Z,99131.00
2022-12-16T05:29:05.049Z,99138.84
2022-12-16T05:31:49.874Z,99139.69
2022-12-16T05:34:34.662Z,99139.56
2022-12-16T05:37:19.608Z,99144.78
2022-12-16T05:40:04.501Z,99129.53
2022-12-16T05:42:49.664Z,99124.97
2022-12-16T05:45:34.444Z,99131.97
2022-12-16T05:48:19.224Z,99124.72
2022-12-16T05:51:04.126Z,99136.31
2022-12-16T05:53:48.857Z,99141.38
2022-12-16T05:56:33.803Z,99141.53
2022-12-16T05:59:18.577Z,99137.03
2022-12-16T06:02:03.736Z,99138.72
2022-12-16T06:04:48.940Z,99144.91
2022-12-16T06:07:34.017Z,99150.13
2022-12-16T06:10:18.960Z,99147.34
2022-12-16T06:13:06.972Z,99145.41
2022-12-16T06:15:52.052Z,99138.50
2022-12-16T06:18:37.024Z,99138.25
2022-12-16T06:21:22.873Z,99133.69
2022-12-16T06:24:07.790Z,99139.00
2022-12-16T06:26:52.658Z,99139.72
2022-12-16T06:29:37.496Z,99150.94
2022-12-16T06:32:22.837Z,99151.94
2022-12-16T06:35:07.754Z,99151.69
2022-12-16T06:37:52.759Z,99145.31
2022-12-16T06:40:37.585Z,99157.63
2022-12-16T06:43:22.488Z,99161.00
2022-12-16T06:46:07.249Z,99149.38
2022-12-16T06:48:52.086Z,99152.91
2022-12-16T06:51:36.864Z,99165.22
2022-12-16T06:54:22.228Z,99168.75
2022-12-16T06:57:07.104Z,99165.94
2022-12-16T06:59:52.188Z,99157.84
2022-12-16T07:02:37.113Z,99162.09
2022-12-16T07:05:23.037Z,99174.41
2022-12-16T07:08:09.975Z,99176.09
2022-12-16T07:11:00.348Z,99178.75
2022-12-16T07:13:54.197Z,99174.19
2022-12-16T07:16:39.065Z,99165.94
2022-12-16T07:19:24.116Z,99163.06
2022-12-16T07:22:08.836Z,99174.41
2022-12-16T07:24:53.791Z,99176.09
2022-12-16T07:27:39.025Z,99160.88
2022-12-16T07:30:24.329Z,99172.13
2022-12-16T07:33:09.232Z,99174.53
2022-12-16T07:35:54.148Z,99177.69
2022-12-16T07:38:38.977Z,99176.59
2022-12-16T07:41:24.299Z,99167.63
2022-12-16T07:44:09.311Z,99158.44
2022-12-16T07:46:54.292Z,99157.25
2022-12-16T07:49:40.242Z,99157.56
2022-12-16T07:52:25.155Z,99167.88
2022-12-16T07:55:09.949Z,99171.00
2022-12-16T07:57:55.138Z,99173.41
2022-12-16T08:00:39.918Z,99178.34
2022-12-16T08:03:24.978Z,99173.50
2022-12-16T08:06:10.197Z,99186.31
2022-12-16T08:09:05.621Z,99185.81
2022-12-16T08:11:50.392Z,99186.16
2022-12-16T08:14:35.222Z,99187.63
2022-12-16T08:17:19.933Z,99195.22
2022-12-16T08:20:05.014Z,99195.00
2022-12-16T08:22:50.240Z,99179.59
2022-12-16T08:25:36.279Z,99175.84
2022-12-16T08:28:21.092Z,99169.41
2022-12-16T08:31:09.981Z,99170.13
2022-12-16T08:33:55.572Z,99171.69
2022-12-16T08:36:40.941Z,99179.16
2022-12-16T08:39:25.990Z,99173.31
2022-12-16T08:42:10.823Z,99167.34
2022-12-16T08:44:55.722Z,99165.00
2022-12-16T08:47:42.949Z,99164.75
2022-12-16T08:50:27.955Z,99168.84
2022-12-16T08:53:12.665Z,99163.97
2022-12-16T08:55:58.169Z,99165.16
2022-12-16T08:58:42.978Z,99177.81
2022-12-16T09:01:27.868Z,99186.25
2022-12-16T09:04:13.124Z,99197.25
2022-12-16T09:06:58.356Z,99188.28
2022-12-16T09:09:43.753Z,99207.53
2022-12-16T09:12:28.651Z,99219.91
2022-12-16T09:15:13.753Z,99220.75
2022-12-16T09:18:00.233Z,99211.06
2022-12-16T09:20:45.554Z,99207.69
2022-12-16T09:23:31.183Z,99213.13
2022-12-16T09:26:16.522Z,99215.81
2022-12-16T09:29:01.368Z,99218.47
2022-12-16T09:31:46.428Z,99231.69
2022-12-16T09:34:31.239Z,99245.16
2022-12-16T09:37:16.152Z,99234.59
2022-12-16T09:40:01.129Z,99226.47
2022-12-16T09:42:52.308Z,99226.19
2022-12-16T09:45:51.263Z,99231.28
2022-12-16T09:48:46.023Z,99237.31
2022-12-16T09:51:32.201Z,99237.06
2022-12-16T09:54:20.611Z,99233.88
2022-12-16T09:57:07.136Z,99237.00
2022-12-16T09:59:59.497Z,99240.84
2022-12-16T10:02:44.936Z,99241.53
2022-12-16T10:05:41.010Z,99259.09
2022-12-16T10:08:44.261Z,99249.28
2022-12-16T10:12:04.197Z,99244.78
2022-12-16T10:14:57.643Z,99243.81
2022-12-16T10:17:44.661Z,99248.31
2022-12-16T10:20:57.653Z,99251.84
2022-12-16T10:24:18.079Z,99258.28
2022-12-16T10:27:22.967Z,99252.66
2022-12-16T10:30:07.787Z,99248.88
2022-12-16T10:33:06.067Z,99253.00
2022-12-16T10:36:09.571Z,99263.25
2022-12-16T10:39:05.845Z,99260.91
2022-12-16T10:41:53.872Z,99267.53
2022-12-16T10:44:52.789Z,99277.97
2022-12-16T10:47:37.938Z,99276.84
2022-12-16T10:50:23.189Z,99261.66
2022-12-16T10:53:24.026Z,99259.72
2022-12-16T10:56:24.236Z,99258.72
2022-12-16T10:59:15.301Z,99266.63
2022-12-16T11:02:00.816Z,99271.22
2022-12-16T11:04:46.148Z,99280.50
2022-12-16T11:08:04.266Z,99276.41
2022-12-16T11:11:01.857Z,99273.72
2022-12-16T11:13:52.229Z,99277.63
2022-12-16T11:16:43.508Z,99280.59
2022-12-16T11:19:46.705Z,99279.97
2022-12-16T11:22:36.316Z,99282.94
2022-12-16T11:25:33.416Z,99285.72
2022-12-16T11:28:22.618Z,99294.59
2022-12-16T11:31:14.291Z,99299.06
2022-12-16T11:34:01.036Z,99309.88
2022-12-16T11:36:46.329Z,99324.94
2022-12-16T11:39:38.035Z,99348.22
2022-12-16T11:42:24.921Z,99355.53
2022-12-16T11:45:16.368Z,99358.31
2022-12-16T11:48:07.398Z,99379.97
2022-12-16T11:50:59.437Z,99374.88
2022-12-16T11:53:51.909Z,99374.00
2022-12-16T11:56:42.793Z,99370.75
2022-12-16T11:59:46.880Z,99377.34
2022-12-16T12:02:39.803Z,99367.88
2022-12-16T12:05:25.356Z,99358.44
2022-12-16T12:08:23.366Z,99344.38
2022-12-16T12:11:14.878Z,99318.81
2022-12-16T12:14:18.176Z,99305.47
2022-12-16T12:17:25.898Z,99304.47
2022-12-16T12:20:35.709Z,99300.72
2022-12-16T12:23:25.968Z,99297.22
2022-12-16T12:26:25.164Z,99303.38
2022-12-16T12:29:17.848Z,99309.56
2022-12-16T12:32:15.732Z,99307.63
2022-12-16T12:35:21.657Z,99319.00
2022-12-16T12:38:32.741Z,99340.81
2022-12-16T12:41:32.769Z,99329.88
2022-12-16T12:44:20.969Z,99317.13
2022-12-16T12:47:15.116Z,99322.91
2022-12-16T12:50:12.425Z,99345.56
2022-12-16T12:53:15.687Z,99348.00
2022-12-16T12:56:36.709Z,99362.91
2022-12-16T12:59:30.745Z,99361.91
2022-12-16T13:02:17.727Z,99375.28
2022-12-16T13:05:05.422Z,99381.97
2022-12-16T13:07:51.272Z,99381.13
2022-12-16T13:10:39.598Z,99368.75
2022-12-16T13:13:34.570Z,99371.44
2022-12-16T13:16:22.313Z,99372.38
2022-12-16T13:19:27.894Z,99372.53
2022-12-16T13:22:13.289Z,99358.22
2022-12-16T13:25:04.798Z,99360.75
2022-12-16T13:28:05.400Z,99366.78
2022-12-16T13:30:52.496Z,99384.91
2022-12-16T13:33:46.949Z,99378.97
2022-12-16T13:36:34.235Z,99385.41
2022-12-16T13:39:39.714Z,99399.88
2022-12-16T13:42:25.027Z,99416.13
2022-12-16T13:45:09.879Z,99420.03
2022-12-16T13:48:00.886Z,99420.88
2022-12-16T13:51:18.021Z,99419.06
2022-12-16T13:54:12.147Z,99438.72
2022-12-16T13:57:04.172Z,99446.13
2022-12-16T13:59:51.200Z,99445.41
2022-12-16T14:02:57.516Z,99454.00
2022-12-16T14:05:54.835Z,99444.06
2022-12-16T14:08:43.083Z,99452.06
2022-12-16T14:12:01.869Z,99456.94
2022-12-16T14:14:57.326Z,99444.81
2022-12-16T14:17:48.037Z,99441.44
2022-12-16T14:20:47.446Z,99438.03
2022-12-16T14:23:58.787Z,99439.38
2022-12-16T14:26:44.831Z,99454.06
2022-12-16T14:29:51.085Z,99444.75
2022-12-16T14:32:51.697Z,99455.06
2022-12-16T14:35:43.148Z,99464.41
2022-12-16T14:38:44.741Z,99473.50
2022-12-16T14:41:38.306Z,99482.72
2022-12-16T14:44:34.193Z,99484.06
2022-12-16T14:47:19.491Z,99495.56
2022-12-16T14:50:12.358Z,99493.16
2022-12-16T14:52:58.463Z,99488.78
2022-12-16T14:55:51.802Z,99489.88
2022-12-16T14:58:39.639Z,99488.31
2022-12-16T15:01:39.558Z,99474.50
2022-12-16T15:04:34.078Z,99462.38
2022-12-16T15:07:26.331Z,99467.81
2022-12-16T15:10:14.776Z,99465.53
2022-12-16T15:13:02.498Z,99481.78
2022-12-16T15:15:50.325Z,99485.63
2022-12-16T15:18:43.750Z,99493.63
2022-12-16T15:21:29.138Z,99502.59
2022-12-16T15:24:14.791Z,99528.38
2022-12-16T15:26:59.658Z,99537.25
2022-12-16T15:29:52.624Z,99530.22
2022-12-16T15:32:43.729Z,99542.69
2022-12-16T15:35:50.819Z,99560.47
2022-12-16T15:38:52.110Z,99575.31
2022-12-16T15:41:47.982Z,99582.94
2022-12-16T15:44:38.375Z,99578.84
2022-12-16T15:47:42.171Z,99571.31
2022-12-16T15:50:31.722Z,99582.31
2022-12-16T15:53:48.586Z,99578.53
2022-12-16T15:56:41.323Z,99575.72
2022-12-16T15:59:39.994Z,99584.28
2022-12-16T16:02:41.869Z,99567.81
2022-12-16T16:05:34.306Z,99567.06
2022-12-16T16:08:19.565Z,99563.91
2022-12-16T16:11:04.888Z,99564.16
2022-12-16T16:13:49.681Z,99563.66
2022-12-16T16:16:35.933Z,99569.19
2022-12-16T16:19:21.733Z,99576.56
2022-12-16T16:22:07.318Z,99570.50
2022-12-16T16:24:52.483Z,99571.69
2022-12-16T16:27:38.226Z,99571.94
2022-12-16T16:30:23.953Z,99575.78
2022-12-16T16:33:08.668Z,99583.16
2022-12-16T16:35:54.024Z,99577.06
2022-12-16T16:38:38.945Z,99580.81
2022-12-16T16:41:27.255Z,99569.44
2022-12-16T16:44:15.279Z,99567.84
2022-12-16T16:47:04.744Z,99560.94
2022-12-16T16:49:54.389Z,99549.56
2022-12-16T16:52:42.805Z,99558.53
2022-12-16T16:55:37.733Z,99568.31
2022-12-16T16:58:32.373Z,99566.81
2022-12-16T17:01:17.734Z,99581.19
2022-12-16T17:04:03.499Z,99593.16
2022-12-16T17:06:50.773Z,99594.22
2022-12-16T17:09:35.653Z,99610.09
2022-12-16T17:12:20.540Z,99614.00
2022-12-16T17:15:05.385Z,99623.56
2022-12-16T17:17:50.420Z,99624.63
2022-12-16T17:20:35.536Z,99624.88
2022-12-16T17:23:20.322Z,99629.34
2022-12-16T17:26:05.724Z,99623.16
2022-12-16T17:28:50.873Z,99631.03
2022-12-16T17:31:35.715Z,99633.16
2022-12-16T17:34:20.934Z,99633.50
2022-12-16T17:37:05.929Z,99643.72
2022-12-16T17:39:50.988Z,99650.13
2022-12-16T17:42:35.927Z,99647.69
2022-12-16T17:45:21.141Z,99637.16
2022-12-16T17:48:06.068Z,99643.53
2022-12-16T17:50:51.254Z,99644.50
2022-12-16T17:53:36.657Z,99642.81
2022-12-16T17:56:23.927Z,99631.31
2022-12-16T17:59:11.052Z,99638.44
2022-12-16T18:01:56.509Z,99627.81
2022-12-16T18:04:41.847Z,99633.97
2022-12-16T18:07:26.661Z,99628.88
2022-12-16T18:10:11.856Z,99628.25
2022-12-16T18:12:57.213Z,99634.63
2022-12-16T18:15:42.106Z,99642.72
2022-12-16T18:18:26.909Z,99634.72
2022-12-16T18:21:11.735Z,99637.41
2022-12-16T18:23:56.568Z,99641.84
2022-12-16T18:26:41.538Z,99641.75
2022-12-16T18:29:26.293Z,99644.75
2022-12-16T18:32:11.161Z,99657.91
2022-12-16T18:34:55.954Z,99656.09
2022-12-16T18:37:42.052Z,99662.16
2022-12-16T18:40:27.622Z,99668.53
2022-12-16T18:43:12.801Z,99660.69
2022-12-16T18:45:57.673Z,99665.25
2022-12-16T18:48:42.880Z,99673.34
2022-12-16T18:51:28.276Z,99674.53
2022-12-16T18:54:13.177Z,99686.13
2022-12-16T18:56:58.089Z,99679.19
2022-12-16T18:59:42.969Z,99685.34
2022-12-16T19:02:28.473Z,99683.66
2022-12-16T19:05:13.436Z,99684.63
2022-12-16T19:07:58.377Z,99682.91
2022-12-16T19:10:43.487Z,99695.34
2022-12-16T19:13:32.400Z,99697.91
2022-12-16T19:16:17.860Z,99706.84
2022-12-16T19:19:03.016Z,99712.06
2022-12-16T19:21:52.144Z,99695.34
2022-12-16T19:24:41.401Z,99698.25
2022-12-16T19:27:26.544Z,99694.94
2022-12-16T19:30:11.438Z,99694.16
2022-12-16T19:32:56.305Z,99696.09
2022-12-16T19:35:41.408Z,99692.78
2022-12-16T19:38:30.673Z,99697.16
2022-12-16T19:41:15.689Z,99690.13
2022-12-16T19:44:05.694Z,99693.75
2022-12-16T19:46:51.654Z,99699.06
2022-12-16T19:52:41.972Z,99702.78
2022-12-16T19:55:27.177Z,99698.41
2022-12-16T19:58:12.441Z,99713.44
2022-12-16T20:00:57.383Z,99695.56
2022-12-16T20:03:42.853Z,99696.50
2022-12-16T20:06:28.448Z,99706.19
2022-12-16T20:09:14.746Z,99701.81
2022-12-16T20:12:01.373Z,99712.38
2022-12-16T20:14:47.137Z,99702.66
2022-12-16T20:17:32.738Z,99712.47
2022-12-16T20:20:17.662Z,99723.19
2022-12-16T20:23:02.466Z,99711.81
2022-12-16T20:25:47.348Z,99707.47
2022-12-16T20:28:32.120Z,99720.00
2022-12-16T20:31:21.673Z,99711.19
2022-12-16T20:34:16.191Z,99711.28
2022-12-16T20:37:01.442Z,99719.25
2022-12-16T20:39:52.942Z,99726.25
2022-12-16T20:42:42.041Z,99729.66
2022-12-16T20:45:27.409Z,99746.66
2022-12-16T20:48:12.872Z,99733.38
2022-12-16T20:50:57.547Z,99735.50
2022-12-16T20:53:43.035Z,99752.28
2022-12-16T20:56:28.289Z,99740.28
2022-12-16T20:59:13.834Z,99738.69
2022-12-16T21:05:23.492Z,99748.44
2022-12-16T21:08:09.411Z,99761.94
2022-12-16T21:10:56.026Z,99759.72
2022-12-16T21:13:41.789Z,99748.34
2022-12-16T21:16:26.508Z,99737.81
2022-12-16T21:19:11.293Z,99747.69
2022-12-16T21:21:56.655Z,99758.31
2022-12-16T21:24:42.158Z,99763.53
2022-12-16T21:27:27.500Z,99755.34
2022-12-16T21:30:12.189Z,99763.72
2022-12-16T21:32:57.491Z,99761.28
2022-12-16T21:35:42.332Z,99767.44
2022-12-16T21:38:31.611Z,99768.50
2022-12-16T21:41:16.424Z,99767.44
2022-12-16T21:44:01.236Z,99766.78
2022-12-16T21:46:46.659Z,99766.97
2022-12-16T21:49:31.481Z,99760.09
2022-12-16T21:52:16.828Z,99758.03
2022-12-16T21:55:01.935Z,99761.72
2022-12-16T21:57:47.063Z,99766.16
2022-12-16T22:00:32.960Z,99762.47
2022-12-16T22:03:17.738Z,99770.75
2022-12-16T22:06:02.967Z,99777.09
2022-12-16T22:08:47.812Z,99778.81
2022-12-16T22:11:33.719Z,99777.97
2022-12-16T22:14:18.560Z,99779.75
2022-12-16T22:17:05.742Z,99782.50
2022-12-16T22:19:50.901Z,99785.28
2022-12-16T22:22:37.057Z,99792.56
2022-12-16T22:25:22.847Z,99792.13
2022-12-16T22:28:07.711Z,99796.66
2022-12-16T22:30:52.533Z,99791.47
2022-12-16T22:33:41.157Z,99798.78
2022-12-16T22:36:26.521Z,99792.50
2022-12-16T22:39:11.973Z,99789.78
2022-12-16T22:41:56.938Z,99784.72
2022-12-16T22:44:42.268Z,99789.47
2022-12-16T22:47:27.250Z,99795.66
2022-12-16T22:50:12.030Z,99780.59
2022-12-16T22:52:56.889Z,99785.59
2022-12-16T22:55:41.726Z,99780.06
2022-12-16T22:58:29.065Z,99775.63
2022-12-16T23:01:14.240Z,99775.72
2022-12-16T23:03:59.085Z,99782.84
2022-12-16T23:06:44.093Z,99776.69
2022-12-16T23:09:28.980Z,99771.75
2022-12-16T23:12:14.380Z,99773.75
2022-12-16T23:14:59.143Z,99786.06
2022-12-16T23:17:44.128Z,99801.31
2022-12-16T23:20:29.797Z,99816.03
2022-12-16T23:23:15.420Z,99821.97
2022-12-16T23:26:00.447Z,99820.00
2022-12-16T23:28:45.779Z,99804.25
2022-12-16T23:31:30.715Z,99805.19
2022-12-16T23:34:15.804Z,99796.00
2022-12-16T23:37:00.818Z,99800.75
2022-12-16T23:39:45.809Z,99791.34
2022-12-16T23:42:30.641Z,99781.91
2022-12-16T23:45:15.476Z,99798.88
2022-12-16T23:48:00.211Z,99789.28
2022-12-16T23:50:44.956Z,99785.13
2022-12-16T23:53:30.290Z,99778.09
2022-12-16T23:56:17.645Z,99776.41
2022-12-16T23:59:03.099Z,99780.03
